Wendy C — WYB6131 — position and weather

sailwx.info

Track history (hours):
 
Tides and Currents Weather Stations Pressure Air Temp Water Temp Dewpoint Dewpoint Depression Visibility Wind Speed Wind Dir Waves Ship Positions

Wendy C

Owner: Harbor Towing & Fleeting, Inc., Metairie, LA. More information available from US FCC via Universal Licensing System and Coast Guard Vessel Documentation Center.

Last reported at 2015-Aug-30 19:33 UTC. Time now 2015-Aug-30 20:05 UTC.
Position N 29°57' W 090°01'.

Length 19 m; draft 3 m.

Type: Towing. MMSI: 366160126.

Date/timePositionNaut miles runAvg speedWind from/ knotsBaromVisibWave heightAir tempDewpointWater temp
2015-Aug-30 19:33N 29°57' W 090°01'0 0.5
2015-Aug-30 18:29N 29°56' W 090°00'1 0.6
2015-Aug-30 17:32N 29°57' W 090°01'2 0.1
2015-Aug-29 22:17N 29°59' W 090°01'4 5.2
2015-Aug-29 21:29N 30°00' W 089°57'4 3.8
2015-Aug-29 20:33N 29°60' W 090°01'1 0.8
2015-Aug-29 19:33N 29°60' W 090°00'0 0.0
2015-Aug-29 18:32N 29°60' W 090°00'3 2.5
2015-Aug-29 17:32N 29°58' W 090°02'0 0.0
2015-Aug-29 16:33N 29°58' W 090°02'0 0.5
2015-Aug-29 15:33N 29°57' W 090°01'1 0.5
2015-Aug-29 14:33N 29°57' W 090°01'4 4.2
2015-Aug-29 13:33N 29°54' W 090°05'1 1.1
2015-Aug-29 12:29N 29°53' W 090°05'2 1.5
2015-Aug-29 11:29N 29°55' W 090°05'4 3.7
2015-Aug-29 10:32N 29°58' W 090°02'0 0.0
2015-Aug-29 09:24N 29°58' W 090°02'1 0.7
2015-Aug-29 08:20N 29°58' W 090°02'2 2.1
2015-Aug-29 07:24N 29°60' W 090°01'2 2.0
2015-Aug-29 06:24N 29°58' W 090°02'2 0.1
2015-Aug-28 01:25N 29°60' W 090°01'2 2.4
2015-Aug-28 00:28N 29°58' W 090°02'2 1.8
2015-Aug-27 23:19N 29°56' W 090°00'0 0.3
2015-Aug-27 22:18N 29°56' W 090°00'0 0.0
2015-Aug-27 21:25N 29°56' W 090°00'0 0.0
2015-Aug-27 20:31N 29°56' W 090°00'0 0.0
2015-Aug-27 19:26N 29°56' W 090°00'0 0.3
2015-Aug-27 18:16N 29°56' W 090°00'0 0.0
2015-Aug-27 17:31N 29°56' W 090°00'0 0.0
2015-Aug-27 16:33N 29°56' W 090°00'0 0.1
2015-Aug-27 15:30N 29°56' W 090°00'0 0.3
2015-Aug-27 14:30N 29°56' W 090°00'0 0.0
2015-Aug-27 13:23N 29°56' W 090°00'0 0.0
2015-Aug-27 12:20N 29°56' W 090°00'0 0.3
2015-Aug-27 11:22N 29°57' W 090°01'2 2.3
2015-Aug-27 10:32N 29°58' W 090°02'1 0.7
2015-Aug-27 09:32N 29°58' W 090°02'2 2.4
2015-Aug-27 08:33N 29°60' W 090°01'3 2.8
2015-Aug-27 07:28N 29°57' W 090°01'3 2.4
2015-Aug-27 06:21N 29°56' W 090°04'2 2.0
2015-Aug-27 05:29N 29°54' W 090°05'4 3.7
2015-Aug-27 04:31N 29°51' W 090°04'0 0.0
2015-Aug-27 03:33N 29°51' W 090°04'4 3.7
2015-Aug-27 02:32N 29°55' W 090°05'0 0.0
2015-Aug-27 01:33N 29°55' W 090°05'2 1.7
2015-Aug-27 00:33N 29°53' W 090°04'2 1.7
2015-Aug-26 23:21N 29°51' W 090°04'1 1.3
2015-Aug-26 22:33N 29°52' W 090°04'7 0.3
2015-Aug-25 23:08N 29°59' W 090°01'1 0.8
2015-Aug-25 22:17N 29°59' W 090°01'0 0.0
2015-Aug-25 21:23N 29°59' W 090°01'0 0.0
2015-Aug-25 20:31N 29°59' W 090°01'0 0.0
2015-Aug-25 19:29N 29°59' W 090°01'0 0.0
2015-Aug-25 18:32N 29°59' W 090°01'0 0.0
2015-Aug-25 17:30N 29°59' W 090°01'0 0.0
2015-Aug-25 16:32N 29°59' W 090°01'0 0.0
2015-Aug-25 15:33N 29°59' W 090°01'0 0.2
2015-Aug-25 14:33N 29°59' W 090°01'0 0.1
2015-Aug-25 13:33N 29°59' W 090°01'0 0.0
2015-Aug-25 12:33N 29°59' W 090°01'0 0.0
2015-Aug-25 11:33N 29°59' W 090°01'1 0.6
2015-Aug-25 10:29N 29°60' W 090°00'0 0.3
2015-Aug-25 09:31N 29°60' W 090°00'2 2.2
2015-Aug-25 08:24N 29°58' W 090°02'2 1.6
2015-Aug-25 07:16N 29°56' W 090°00'0 0.0
2015-Aug-24 10:09N 29°56' W 089°60'0 0.3
2015-Aug-24 09:22N 29°56' W 090°00'0 0.0
2015-Aug-24 07:12N 29°56' W 090°00'0 0.0
2015-Aug-24 06:31N 29°56' W 090°00'0 0.0
2015-Aug-24 04:29N 29°56' W 090°00'0 0.0
2015-Aug-24 03:33N 29°56' W 090°00'0 0.0
2015-Aug-24 02:33N 29°56' W 090°00'0 0.0
2015-Aug-24 01:27N 29°56' W 090°00'3 3.2
2015-Aug-24 00:32N 29°58' W 090°03'5 4.8
2015-Aug-23 23:32N 29°53' W 090°04'2 2.0
2015-Aug-23 22:30N 29°51' W 090°04'0 0.0
2015-Aug-23 21:31N 29°51' W 090°04'2 2.0
2015-Aug-23 20:33N 29°53' W 090°04'2 2.2
2015-Aug-23 19:32N 29°55' W 090°05'0 0.0
2015-Aug-23 18:33N 29°55' W 090°05'2 1.8
2015-Aug-23 17:31N 29°56' W 090°04'3 2.9
2015-Aug-23 16:32N 29°56' W 090°00'0 0.0
2015-Aug-23 15:33N 29°56' W 090°00'0 0.0
2015-Aug-23 14:32N 29°56' W 090°00'7 0.2
2015-Aug-22 09:19N 29°50' W 090°04'1 0.7
2015-Aug-22 08:33N 29°51' W 090°04'0 0.0
2015-Aug-22 07:32N 29°51' W 090°04'0 0.0
2015-Aug-22 06:33N 29°51' W 090°04'0 0.0
2015-Aug-22 05:33N 29°51' W 090°04'0 0.0
2015-Aug-22 04:33N 29°51' W 090°04'3 2.9
2015-Aug-22 03:33N 29°54' W 090°05'1 0.9
2015-Aug-22 02:28N 29°55' W 090°05'0 0.3
2015-Aug-22 01:31N 29°55' W 090°05'1 0.5
2015-Aug-22 00:29N 29°55' W 090°06'5 2.4
2015-Aug-21 22:29N 29°58' W 090°02'2 0.1
2015-Aug-21 04:26N 29°56' W 090°00'0 0.0
2015-Aug-21 01:12N 29°56' W 090°00'0 0.0
2015-Aug-20 23:15N 29°56' W 090°00'0 0.3
2015-Aug-20 22:23N 29°57' W 090°00'4 4.9
2015-Aug-20 21:28N 29°55' W 090°05'  
Track history (hours):
 
Tides and Currents Weather Stations Pressure Air Temp Water Temp Dewpoint Dewpoint Depression Visibility Wind Speed Wind Dir Waves Ship Positions

Wendy C

Owner: Harbor Towing & Fleeting, Inc., Metairie, LA. More information available from US FCC via Universal Licensing System and Coast Guard Vessel Documentation Center.

Last reported at 2015-Aug-30 19:33 UTC. Time now 2015-Aug-30 20:05 UTC.
Position N 29°57' W 090°01'.

Length 19 m; draft 3 m.

Type: Towing. MMSI: 366160126.

Date/timePositionNaut miles runAvg speedWind from/ knotsBaromVisibWave heightAir tempDewpointWater temp
2015-Aug-30 19:33N 29°57' W 090°01'0 0.5
2015-Aug-30 18:29N 29°56' W 090°00'1 0.6
2015-Aug-30 17:32N 29°57' W 090°01'2 0.1
2015-Aug-29 22:17N 29°59' W 090°01'4 5.2
2015-Aug-29 21:29N 30°00' W 089°57'4 3.8
2015-Aug-29 20:33N 29°60' W 090°01'1 0.8
2015-Aug-29 19:33N 29°60' W 090°00'0 0.0
2015-Aug-29 18:32N 29°60' W 090°00'3 2.5
2015-Aug-29 17:32N 29°58' W 090°02'0 0.0
2015-Aug-29 16:33N 29°58' W 090°02'0 0.5
2015-Aug-29 15:33N 29°57' W 090°01'1 0.5
2015-Aug-29 14:33N 29°57' W 090°01'4 4.2
2015-Aug-29 13:33N 29°54' W 090°05'1 1.1
2015-Aug-29 12:29N 29°53' W 090°05'2 1.5
2015-Aug-29 11:29N 29°55' W 090°05'4 3.7
2015-Aug-29 10:32N 29°58' W 090°02'0 0.0
2015-Aug-29 09:24N 29°58' W 090°02'1 0.7
2015-Aug-29 08:20N 29°58' W 090°02'2 2.1
2015-Aug-29 07:24N 29°60' W 090°01'2 2.0
2015-Aug-29 06:24N 29°58' W 090°02'2 0.1
2015-Aug-28 01:25N 29°60' W 090°01'2 2.4
2015-Aug-28 00:28N 29°58' W 090°02'2 1.8
2015-Aug-27 23:19N 29°56' W 090°00'0 0.3
2015-Aug-27 22:18N 29°56' W 090°00'0 0.0
2015-Aug-27 21:25N 29°56' W 090°00'0 0.0
2015-Aug-27 20:31N 29°56' W 090°00'0 0.0
2015-Aug-27 19:26N 29°56' W 090°00'0 0.3
2015-Aug-27 18:16N 29°56' W 090°00'0 0.0
2015-Aug-27 17:31N 29°56' W 090°00'0 0.0
2015-Aug-27 16:33N 29°56' W 090°00'0 0.1
2015-Aug-27 15:30N 29°56' W 090°00'0 0.3
2015-Aug-27 14:30N 29°56' W 090°00'0 0.0
2015-Aug-27 13:23N 29°56' W 090°00'0 0.0
2015-Aug-27 12:20N 29°56' W 090°00'0 0.3
2015-Aug-27 11:22N 29°57' W 090°01'2 2.3
2015-Aug-27 10:32N 29°58' W 090°02'1 0.7
2015-Aug-27 09:32N 29°58' W 090°02'2 2.4
2015-Aug-27 08:33N 29°60' W 090°01'3 2.8
2015-Aug-27 07:28N 29°57' W 090°01'3 2.4
2015-Aug-27 06:21N 29°56' W 090°04'2 2.0
2015-Aug-27 05:29N 29°54' W 090°05'4 3.7
2015-Aug-27 04:31N 29°51' W 090°04'0 0.0
2015-Aug-27 03:33N 29°51' W 090°04'4 3.7
2015-Aug-27 02:32N 29°55' W 090°05'0 0.0
2015-Aug-27 01:33N 29°55' W 090°05'2 1.7
2015-Aug-27 00:33N 29°53' W 090°04'2 1.7
2015-Aug-26 23:21N 29°51' W 090°04'1 1.3
2015-Aug-26 22:33N 29°52' W 090°04'7 0.3
2015-Aug-25 23:08N 29°59' W 090°01'1 0.8
2015-Aug-25 22:17N 29°59' W 090°01'0 0.0
2015-Aug-25 21:23N 29°59' W 090°01'0 0.0
2015-Aug-25 20:31N 29°59' W 090°01'0 0.0
2015-Aug-25 19:29N 29°59' W 090°01'0 0.0
2015-Aug-25 18:32N 29°59' W 090°01'0 0.0
2015-Aug-25 17:30N 29°59' W 090°01'0 0.0
2015-Aug-25 16:32N 29°59' W 090°01'0 0.0
2015-Aug-25 15:33N 29°59' W 090°01'0 0.2
2015-Aug-25 14:33N 29°59' W 090°01'0 0.1
2015-Aug-25 13:33N 29°59' W 090°01'0 0.0
2015-Aug-25 12:33N 29°59' W 090°01'0 0.0
2015-Aug-25 11:33N 29°59' W 090°01'1 0.6
2015-Aug-25 10:29N 29°60' W 090°00'0 0.3
2015-Aug-25 09:31N 29°60' W 090°00'2 2.2
2015-Aug-25 08:24N 29°58' W 090°02'2 1.6
2015-Aug-25 07:16N 29°56' W 090°00'0 0.0
2015-Aug-24 10:09N 29°56' W 089°60'0 0.3
2015-Aug-24 09:22N 29°56' W 090°00'0 0.0
2015-Aug-24 07:12N 29°56' W 090°00'0 0.0
2015-Aug-24 06:31N 29°56' W 090°00'0 0.0
2015-Aug-24 04:29N 29°56' W 090°00'0 0.0
2015-Aug-24 03:33N 29°56' W 090°00'0 0.0
2015-Aug-24 02:33N 29°56' W 090°00'0 0.0
2015-Aug-24 01:27N 29°56' W 090°00'3 3.2
2015-Aug-24 00:32N 29°58' W 090°03'5 4.8
2015-Aug-23 23:32N 29°53' W 090°04'2 2.0
2015-Aug-23 22:30N 29°51' W 090°04'0 0.0
2015-Aug-23 21:31N 29°51' W 090°04'2 2.0
2015-Aug-23 20:33N 29°53' W 090°04'2 2.2
2015-Aug-23 19:32N 29°55' W 090°05'0 0.0
2015-Aug-23 18:33N 29°55' W 090°05'2 1.8
2015-Aug-23 17:31N 29°56' W 090°04'3 2.9
2015-Aug-23 16:32N 29°56' W 090°00'0 0.0
2015-Aug-23 15:33N 29°56' W 090°00'0 0.0
2015-Aug-23 14:32N 29°56' W 090°00'7 0.2
2015-Aug-22 09:19N 29°50' W 090°04'1 0.7
2015-Aug-22 08:33N 29°51' W 090°04'0 0.0
2015-Aug-22 07:32N 29°51' W 090°04'0 0.0
2015-Aug-22 06:33N 29°51' W 090°04'0 0.0
2015-Aug-22 05:33N 29°51' W 090°04'0 0.0
2015-Aug-22 04:33N 29°51' W 090°04'3 2.9
2015-Aug-22 03:33N 29°54' W 090°05'1 0.9
2015-Aug-22 02:28N 29°55' W 090°05'0 0.3
2015-Aug-22 01:31N 29°55' W 090°05'1 0.5
2015-Aug-22 00:29N 29°55' W 090°06'5 2.4
2015-Aug-21 22:29N 29°58' W 090°02'2 0.1
2015-Aug-21 04:26N 29°56' W 090°00'0 0.0
2015-Aug-21 01:12N 29°56' W 090°00'0 0.0
2015-Aug-20 23:15N 29°56' W 090°00'0 0.3
2015-Aug-20 22:23N 29°57' W 090°00'4 4.9
2015-Aug-20 21:28N 29°55' W 090°05'  

Dump ship's entire track history